sensor_id;sensor_type;location;lat;lon;timestamp;pressure;altitude;pressure_sealevel;temperature;humidity
29549;BME280;16487;53.094;8.800;2023-10-08T00:00:42;100727.22;;;12.35;100.00
29549;BME280;16487;53.094;8.800;2023-10-08T00:03:10;100730.13;;;12.31;100.00
29549;BME280;16487;53.094;8.800;2023-10-08T00:05:37;100730.66;;;12.39;100.00
29549;BME280;16487;53.094;8.800;2023-10-08T00:08:06;100747.75;;;12.41;100.00
29549;BME280;16487;53.094;8.800;2023-10-08T00:10:37;100741.84;;;12.39;100.00
29549;BME280;16487;53.094;8.800;2023-10-08T00:13:04;100744.03;;;12.44;100.00
29549;BME280;16487;53.094;8.800;2023-10-08T00:15:31;100752.44;;;12.44;100.00
29549;BME280;16487;53.094;8.800;2023-10-08T00:17:59;100751.91;;;12.36;100.00
29549;BME280;16487;53.094;8.800;2023-10-08T00:20:26;100753.47;;;12.37;100.00
29549;BME280;16487;53.094;8.800;2023-10-08T00:22:53;100750.22;;;12.39;100.00
29549;BME280;16487;53.094;8.800;2023-10-08T00:25:22;100750.03;;;12.33;100.00
29549;BME280;16487;53.094;8.800;2023-10-08T00:27:49;100751.41;;;12.29;100.00
29549;BME280;16487;53.094;8.800;2023-10-08T00:30:16;100757.31;;;12.31;100.00
29549;BME280;16487;53.094;8.800;2023-10-08T00:32:44;100756.06;;;12.32;100.00
29549;BME280;16487;53.094;8.800;2023-10-08T00:35:11;100760.75;;;12.35;100.00
29549;BME280;16487;53.094;8.800;2023-10-08T00:37:39;100769.47;;;12.37;100.00
29549;BME280;16487;53.094;8.800;2023-10-08T00:40:07;100774.13;;;12.40;100.00
29549;BME280;16487;53.094;8.800;2023-10-08T00:42:36;100771.66;;;12.42;100.00
29549;BME280;16487;53.094;8.800;2023-10-08T00:45:04;100764.66;;;12.37;100.00
29549;BME280;16487;53.094;8.800;2023-10-08T00:47:31;100756.16;;;12.41;100.00
29549;BME280;16487;53.094;8.800;2023-10-08T00:49:59;100760.22;;;12.49;100.00
29549;BME280;16487;53.094;8.800;2023-10-08T00:52:26;100762.69;;;12.47;100.00
29549;BME280;16487;53.094;8.800;2023-10-08T00:54:53;100764.84;;;12.43;100.00
29549;BME280;16487;53.094;8.800;2023-10-08T00:57:22;100769.47;;;12.37;100.00
29549;BME280;16487;53.094;8.800;2023-10-08T00:59:50;100768.41;;;12.43;100.00
29549;BME280;16487;53.094;8.800;2023-10-08T01:02:19;100770.91;;;12.41;100.00
29549;BME280;16487;53.094;8.800;2023-10-08T01:04:46;100779.34;;;12.50;100.00
29549;BME280;16487;53.094;8.800;2023-10-08T01:07:14;100777.59;;;12.44;100.00
29549;BME280;16487;53.094;8.800;2023-10-08T01:09:42;100775.38;;;12.39;100.00
29549;BME280;16487;53.094;8.800;2023-10-08T01:12:12;100789.22;;;12.42;100.00
29549;BME280;16487;53.094;8.800;2023-10-08T01:14:39;100793.78;;;12.49;100.00
29549;BME280;16487;53.094;8.800;2023-10-08T01:17:08;100796.91;;;12.51;100.00
29549;BME280;16487;53.094;8.800;2023-10-08T01:19:35;100777.66;;;12.53;100.00
29549;BME280;16487;53.094;8.800;2023-10-08T01:22:05;100760.88;;;12.53;100.00
29549;BME280;16487;53.094;8.800;2023-10-08T01:24:32;100759.91;;;12.47;100.00
29549;BME280;16487;53.094;8.800;2023-10-08T01:26:59;100754.91;;;12.42;100.00
29549;BME280;16487;53.094;8.800;2023-10-08T01:29:26;100762.31;;;12.36;100.00
29549;BME280;16487;53.094;8.800;2023-10-08T01:31:53;100775.13;;;12.46;100.00
29549;BME280;16487;53.094;8.800;2023-10-08T01:34:20;100777.19;;;12.54;100.00
29549;BME280;16487;53.094;8.800;2023-10-08T01:36:47;100777.00;;;12.49;100.00
29549;BME280;16487;53.094;8.800;2023-10-08T01:39:16;100779.06;;;12.57;100.00
29549;BME280;16487;53.094;8.800;2023-10-08T01:41:44;100773.34;;;12.61;100.00
29549;BME280;16487;53.094;8.800;2023-10-08T01:44:11;100756.09;;;12.53;100.00
29549;BME280;16487;53.094;8.800;2023-10-08T01:46:38;100770.56;;;12.61;100.00
29549;BME280;16487;53.094;8.800;2023-10-08T01:49:05;100770.09;;;12.62;100.00
29549;BME280;16487;53.094;8.800;2023-10-08T01:51:32;100762.16;;;12.61;100.00
29549;BME280;16487;53.094;8.800;2023-10-08T01:54:00;100778.31;;;12.57;100.00
29549;BME280;16487;53.094;8.800;2023-10-08T01:56:28;100778.56;;;12.50;100.00
29549;BME280;16487;53.094;8.800;2023-10-08T01:58:56;100782.59;;;12.49;100.00
29549;BME280;16487;53.094;8.800;2023-10-08T02:01:24;100778.56;;;12.50;100.00
29549;BME280;16487;53.094;8.800;2023-10-08T02:03:51;100785.06;;;12.47;100.00
29549;BME280;16487;53.094;8.800;2023-10-08T02:06:18;100792.22;;;12.48;100.00
29549;BME280;16487;53.094;8.800;2023-10-08T02:08:46;100769.84;;;12.48;100.00
29549;BME280;16487;53.094;8.800;2023-10-08T02:11:13;100769.34;;;12.40;100.00
29549;BME280;16487;53.094;8.800;2023-10-08T02:13:42;100767.66;;;12.43;100.00
29549;BME280;16487;53.094;8.800;2023-10-08T02:16:09;100770.34;;;12.55;100.00
29549;BME280;16487;53.094;8.800;2023-10-08T02:18:36;100779.34;;;12.50;100.00
29549;BME280;16487;53.094;8.800;2023-10-08T02:21:04;100785.44;;;12.58;100.00
29549;BME280;16487;53.094;8.800;2023-10-08T02:23:31;100774.53;;;12.51;100.00
29549;BME280;16487;53.094;8.800;2023-10-08T02:25:58;100781.88;;;12.57;100.00
29549;BME280;16487;53.094;8.800;2023-10-08T02:28:26;100806.91;;;12.61;100.00
29549;BME280;16487;53.094;8.800;2023-10-08T02:30:54;100817.81;;;12.68;100.00
29549;BME280;16487;53.094;8.800;2023-10-08T02:33:21;100809.78;;;12.70;100.00
29549;BME280;16487;53.094;8.800;2023-10-08T02:35:48;100817.03;;;12.67;100.00
29549;BME280;16487;53.094;8.800;2023-10-08T02:38:17;100816.28;;;12.67;100.00
29549;BME280;16487;53.094;8.800;2023-10-08T02:40:45;100817.03;;;12.67;100.00
29549;BME280;16487;53.094;8.800;2023-10-08T02:43:12;100818.28;;;12.66;100.00
29549;BME280;16487;53.094;8.800;2023-10-08T02:45:39;100825.44;;;12.67;100.00
29549;BME280;16487;53.094;8.800;2023-10-08T02:48:08;100837.72;;;12.70;100.00
29549;BME280;16487;53.094;8.800;2023-10-08T02:50:35;100843.59;;;12.63;100.00
29549;BME280;16487;53.094;8.800;2023-10-08T02:53:02;100856.31;;;12.64;100.00
29549;BME280;16487;53.094;8.800;2023-10-08T02:55:30;100865.56;;;12.74;100.00
29549;BME280;16487;53.094;8.800;2023-10-08T02:57:57;100861.66;;;12.71;100.00
29549;BME280;16487;53.094;8.800;2023-10-08T03:00:24;100864.16;;;12.69;100.00
29549;BME280;16487;53.094;8.800;2023-10-08T03:02:52;100860.31;;;12.76;100.00
29549;BME280;16487;53.094;8.800;2023-10-08T03:05:20;100863.22;;;12.72;100.00
29549;BME280;16487;53.094;8.800;2023-10-08T03:07:48;100861.66;;;12.71;100.00
29549;BME280;16487;53.094;8.800;2023-10-08T03:10:15;100867.91;;;12.75;100.00
29549;BME280;16487;53.094;8.800;2023-10-08T03:12:42;100867.25;;;12.71;100.00
29549;BME280;16487;53.094;8.800;2023-10-08T03:15:10;100875.97;;;12.73;100.00
29549;BME280;16487;53.094;8.800;2023-10-08T03:17:37;100874.66;;;12.65;100.00
29549;BME280;16487;53.094;8.800;2023-10-08T03:20:05;100856.97;;;12.68;100.00
29549;BME280;16487;53.094;8.800;2023-10-08T03:22:35;100859.44;;;12.66;100.00
29549;BME280;16487;53.094;8.800;2023-10-08T03:25:03;100855.09;;;12.65;100.00
29549;BME280;16487;53.094;8.800;2023-10-08T03:27:30;100852.56;;;12.58;100.00
29549;BME280;16487;53.094;8.800;2023-10-08T03:29:57;100848.84;;;12.61;100.00
29549;BME280;16487;53.094;8.800;2023-10-08T03:32:24;100870.75;;;12.62;100.00
29549;BME280;16487;53.094;8.800;2023-10-08T03:34:54;100879.94;;;12.63;100.00
29549;BME280;16487;53.094;8.800;2023-10-08T03:37:22;100899.25;;;12.70;100.00
29549;BME280;16487;53.094;8.800;2023-10-08T03:39:51;100909.03;;;12.65;100.00
29549;BME280;16487;53.094;8.800;2023-10-08T03:42:22;100920.31;;;12.62;100.00
29549;BME280;16487;53.094;8.800;2023-10-08T03:44:50;100916.28;;;12.63;100.00
29549;BME280;16487;53.094;8.800;2023-10-08T03:47:17;100922.22;;;12.65;100.00
29549;BME280;16487;53.094;8.800;2023-10-08T03:49:45;100934.19;;;12.65;100.00
29549;BME280;16487;53.094;8.800;2023-10-08T03:52:13;100939.00;;;12.65;100.00
29549;BME280;16487;53.094;8.800;2023-10-08T03:54:40;100937.63;;;12.69;100.00
29549;BME280;16487;53.094;8.800;2023-10-08T03:57:08;100931.69;;;12.67;100.00
29549;BME280;16487;53.094;8.800;2023-10-08T03:59:36;100928.78;;;12.71;100.00
29549;BME280;16487;53.094;8.800;2023-10-08T04:02:03;100910.78;;;12.72;100.00
29549;BME280;16487;53.094;8.800;2023-10-08T04:04:30;100909.66;;;12.69;100.00
29549;BME280;16487;53.094;8.800;2023-10-08T04:06:57;100914.16;;;12.67;100.00
29549;BME280;16487;53.094;8.800;2023-10-08T04:09:28;100923.44;;;12.64;100.00
29549;BME280;16487;53.094;8.800;2023-10-08T04:11:55;100930.94;;;12.67;100.00
29549;BME280;16487;53.094;8.800;2023-10-08T04:14:27;100945.78;;;12.64;100.00
29549;BME280;16487;53.094;8.800;2023-10-08T04:16:54;100945.78;;;12.64;100.00
29549;BME280;16487;53.094;8.800;2023-10-08T04:19:22;100939.94;;;12.71;100.00
29549;BME280;16487;53.094;8.800;2023-10-08T04:21:50;100925.47;;;12.63;100.00
29549;BME280;16487;53.094;8.800;2023-10-08T04:24:17;100941.66;;;12.68;100.00
29549;BME280;16487;53.094;8.800;2023-10-08T04:26:44;100945.44;;;12.75;100.00
29549;BME280;16487;53.094;8.800;2023-10-08T04:29:11;100962.66;;;12.73;100.00
29549;BME280;16487;53.094;8.800;2023-10-08T04:31:40;100961.13;;;12.72;100.00
29549;BME280;16487;53.094;8.800;2023-10-08T04:34:07;100956.75;;;12.71;100.00
29549;BME280;16487;53.094;8.800;2023-10-08T04:36:34;100946.47;;;12.68;100.00
29549;BME280;16487;53.094;8.800;2023-10-08T04:39:01;100961.69;;;12.67;100.00
29549;BME280;16487;53.094;8.800;2023-10-08T04:41:28;100960.78;;;12.70;100.00
29549;BME280;16487;53.094;8.800;2023-10-08T04:43:55;100967.28;;;12.67;100.00
29549;BME280;16487;53.094;8.800;2023-10-08T04:46:23;100969.28;;;12.66;100.00
29549;BME280;16487;53.094;8.800;2023-10-08T04:48:51;100979.56;;;12.69;100.00
29549;BME280;16487;53.094;8.800;2023-10-08T04:51:18;100977.22;;;12.68;100.00
29549;BME280;16487;53.094;8.800;2023-10-08T04:53:45;100973.84;;;12.73;100.00
29549;BME280;16487;53.094;8.800;2023-10-08T04:56:14;100982.25;;;12.73;100.00
29549;BME280;16487;53.094;8.800;2023-10-08T04:58:41;100983.59;;;12.68;100.00
29549;BME280;16487;53.094;8.800;2023-10-08T05:01:08;100998.03;;;12.67;100.00
29549;BME280;16487;53.094;8.800;2023-10-08T05:03:35;101001.19;;;12.69;100.00
29549;BME280;16487;53.094;8.800;2023-10-08T05:06:04;100989.19;;;12.68;100.00
29549;BME280;16487;53.094;8.800;2023-10-08T05:08:31;100991.53;;;12.70;100.00
29549;BME280;16487;53.094;8.800;2023-10-08T05:10:58;100992.34;;;12.71;100.00
29549;BME280;16487;53.094;8.800;2023-10-08T05:13:26;100999.81;;;12.74;100.00
29549;BME280;16487;53.094;8.800;2023-10-08T05:15:53;101014.00;;;12.79;100.00
29549;BME280;16487;53.094;8.800;2023-10-08T05:18:20;101023.63;;;12.78;100.00
29549;BME280;16487;53.094;8.800;2023-10-08T05:20:48;101017.13;;;12.81;100.00
29549;BME280;16487;53.094;8.800;2023-10-08T05:23:17;101003.91;;;12.82;100.00
29549;BME280;16487;53.094;8.800;2023-10-08T05:25:44;100996.09;;;12.77;100.00
29549;BME280;16487;53.094;8.800;2023-10-08T05:28:12;101010.75;;;12.81;100.00
29549;BME280;16487;53.094;8.800;2023-10-08T05:30:39;101005.94;;;12.81;100.00
29549;BME280;16487;53.094;8.800;2023-10-08T05:33:07;100973.75;;;12.64;100.00
29549;BME280;16487;53.094;8.800;2023-10-08T05:35:35;100985.28;;;12.66;100.00
29549;BME280;16487;53.094;8.800;2023-10-08T05:38:03;100995.50;;;12.60;100.00
29549;BME280;16487;53.094;8.800;2023-10-08T05:40:31;100990.00;;;12.56;100.00
29549;BME280;16487;53.094;8.800;2023-10-08T05:42:58;101001.06;;;12.60;100.00
29549;BME280;16487;53.094;8.800;2023-10-08T05:45:25;101001.06;;;12.60;100.00
29549;BME280;16487;53.094;8.800;2023-10-08T05:47:52;101013.16;;;12.57;100.00
29549;BME280;16487;53.094;8.800;2023-10-08T05:50:20;100999.38;;;12.62;100.00
29549;BME280;16487;53.094;8.800;2023-10-08T05:52:47;101014.50;;;12.65;100.00
29549;BME280;16487;53.094;8.800;2023-10-08T05:55:14;101012.53;;;12.75;100.00
29549;BME280;16487;53.094;8.800;2023-10-08T05:57:43;101025.31;;;12.76;100.00
29549;BME280;16487;53.094;8.800;2023-10-08T06:00:11;101020.25;;;12.83;100.00
29549;BME280;16487;53.094;8.800;2023-10-08T06:02:40;101021.81;;;12.84;100.00
29549;BME280;16487;53.094;8.800;2023-10-08T06:05:09;101043.41;;;12.84;100.00
29549;BME280;16487;53.094;8.800;2023-10-08T06:07:37;101043.28;;;12.87;100.00
29549;BME280;16487;53.094;8.800;2023-10-08T06:10:05;101041.50;;;12.93;100.00
29549;BME280;16487;53.094;8.800;2023-10-08T06:12:32;101057.50;;;13.05;100.00
29549;BME280;16487;53.094;8.800;2023-10-08T06:15:01;101058.81;;;13.01;100.00
29549;BME280;16487;53.094;8.800;2023-10-08T06:17:28;101055.16;;;13.04;100.00
29549;BME280;16487;53.094;8.800;2023-10-08T06:19:56;101053.66;;;12.99;100.00
29549;BME280;16487;53.094;8.800;2023-10-08T06:22:23;101061.72;;;12.97;100.00
29549;BME280;16487;53.094;8.800;2023-10-08T06:24:50;101066.00;;;13.02;100.00
29549;BME280;16487;53.094;8.800;2023-10-08T06:27:17;101061.66;;;12.88;100.00
29549;BME280;16487;53.094;8.800;2023-10-08T06:29:44;101060.63;;;12.95;100.00
29549;BME280;16487;53.094;8.800;2023-10-08T06:32:13;101068.34;;;12.91;100.00
29549;BME280;16487;53.094;8.800;2023-10-08T06:34:40;101064.75;;;12.90;100.00
29549;BME280;16487;53.094;8.800;2023-10-08T06:37:07;101053.66;;;12.99;100.00
29549;BME280;16487;53.094;8.800;2023-10-08T06:39:34;101052.34;;;12.91;100.00
29549;BME280;16487;53.094;8.800;2023-10-08T06:42:01;101037.91;;;12.93;100.00
29549;BME280;16487;53.094;8.800;2023-10-08T06:44:33;101036.53;;;12.97;100.00
29549;BME280;16487;53.094;8.800;2023-10-08T06:47:01;101029.84;;;12.95;100.00
29549;BME280;16487;53.094;8.800;2023-10-08T06:49:29;101033.75;;;12.97;100.00
29549;BME280;16487;53.094;8.800;2023-10-08T06:51:56;101038.38;;;12.91;100.00
29549;BME280;16487;53.094;8.800;2023-10-08T06:54:23;101047.72;;;12.97;100.00
29549;BME280;16487;53.094;8.800;2023-10-08T06:56:50;101045.06;;;13.06;100.00
29549;BME280;16487;53.094;8.800;2023-10-08T06:59:18;101044.94;;;13.10;100.00
29549;BME280;16487;53.094;8.800;2023-10-08T07:01:45;101042.09;;;13.22;100.00
29549;BME280;16487;53.094;8.800;2023-10-08T07:04:15;101056.09;;;13.22;100.00
29549;BME280;16487;53.094;8.800;2023-10-08T07:06:45;101075.75;;;13.31;100.00
29549;BME280;16487;53.094;8.800;2023-10-08T07:09:13;101086.25;;;13.40;100.00
29549;BME280;16487;53.094;8.800;2023-10-08T07:11:40;101094.06;;;13.66;100.00
29549;BME280;16487;53.094;8.800;2023-10-08T07:14:07;101093.22;;;13.78;100.00
29549;BME280;16487;53.094;8.800;2023-10-08T07:16:38;101085.59;;;14.01;100.00
29549;BME280;16487;53.094;8.800;2023-10-08T07:19:05;101063.97;;;13.79;100.00
29549;BME280;16487;53.094;8.800;2023-10-08T07:21:32;101042.53;;;13.86;100.00
29549;BME280;16487;53.094;8.800;2023-10-08T07:24:01;101043.59;;;14.10;100.00
29549;BME280;16487;53.094;8.800;2023-10-08T07:26:29;101037.50;;;14.02;100.00
29549;BME280;16487;53.094;8.800;2023-10-08T07:28:56;101022.09;;;14.07;100.00
29549;BME280;16487;53.094;8.800;2023-10-08T07:31:24;101005.91;;;14.11;100.00
29549;BME280;16487;53.094;8.800;2023-10-08T07:33:53;100989.25;;;14.47;100.00
29549;BME280;16487;53.094;8.800;2023-10-08T07:36:24;100996.44;;;14.66;100.00
29549;BME280;16487;53.094;8.800;2023-10-08T07:38:52;100984.13;;;14.72;100.00
29549;BME280;16487;53.094;8.800;2023-10-08T07:41:20;100951.84;;;14.77;100.00
29549;BME280;16487;53.094;8.800;2023-10-08T07:43:48;100910.56;;;14.68;100.00
29549;BME280;16487;53.094;8.800;2023-10-08T07:46:15;100879.22;;;14.88;100.00
29549;BME280;16487;53.094;8.800;2023-10-08T07:48:43;100841.38;;;14.65;100.00
29549;BME280;16487;53.094;8.800;2023-10-08T07:51:10;100828.59;;;14.64;100.00
29549;BME280;16487;53.094;8.800;2023-10-08T07:53:37;100811.59;;;14.59;100.00
29549;BME280;16487;53.094;8.800;2023-10-08T07:56:05;100812.25;;;14.63;100.00
29549;BME280;16487;53.094;8.800;2023-10-08T07:58:34;100808.16;;;14.82;100.00
29549;BME280;16487;53.094;8.800;2023-10-08T08:01:03;100790.06;;;14.74;100.00
29549;BME280;16487;53.094;8.800;2023-10-08T08:03:30;100778.53;;;14.81;100.00
29549;BME280;16487;53.094;8.800;2023-10-08T08:05:58;100770.31;;;15.10;100.00
29549;BME280;16487;53.094;8.800;2023-10-08T08:08:25;100760.41;;;15.33;100.00
29549;BME280;16487;53.094;8.800;2023-10-08T08:10:52;100741.53;;;15.33;100.00
29549;BME280;16487;53.094;8.800;2023-10-08T08:13:19;100705.91;;;15.07;100.00
29549;BME280;16487;53.094;8.800;2023-10-08T08:15:48;100717.88;;;14.93;100.00
29549;BME280;16487;53.094;8.800;2023-10-08T08:18:18;100714.84;;;14.96;100.00
29549;BME280;16487;53.094;8.800;2023-10-08T08:20:46;100708.13;;;15.35;100.00
29549;BME280;16487;53.094;8.800;2023-10-08T08:23:13;100704.75;;;15.22;100.00
29549;BME280;16487;53.094;8.800;2023-10-08T08:25:41;100705.53;;;15.23;100.00
29549;BME280;16487;53.094;8.800;2023-10-08T08:28:09;100708.69;;;15.48;100.00
29549;BME280;16487;53.094;8.800;2023-10-08T08:30:36;100700.94;;;15.43;100.00
29549;BME280;16487;53.094;8.800;2023-10-08T08:33:05;100701.03;;;15.72;100.00
29549;BME280;16487;53.094;8.800;2023-10-08T08:35:32;100707.63;;;15.69;100.00
29549;BME280;16487;53.094;8.800;2023-10-08T08:37:59;100722.25;;;15.50;100.00
29549;BME280;16487;53.094;8.800;2023-10-08T08:40:26;100731.94;;;15.49;100.00
29549;BME280;16487;53.094;8.800;2023-10-08T08:42:53;100727.09;;;15.73;100.00
29549;BME280;16487;53.094;8.800;2023-10-08T08:45:22;100720.97;;;15.60;100.00
29549;BME280;16487;53.094;8.800;2023-10-08T08:47:50;100715.25;;;15.92;100.00
29549;BME280;16487;53.094;8.800;2023-10-08T08:50:19;100733.56;;;15.64;100.00
29549;BME280;16487;53.094;8.800;2023-10-08T08:52:46;100731.38;;;15.68;100.00
29549;BME280;16487;53.094;8.800;2023-10-08T08:55:14;100747.50;;;15.82;100.00
29549;BME280;16487;53.094;8.800;2023-10-08T08:57:42;100756.03;;;15.88;100.00
29549;BME280;16487;53.094;8.800;2023-10-08T09:00:11;100756.22;;;16.23;100.00
29549;BME280;16487;53.094;8.800;2023-10-08T09:02:39;100772.91;;;15.88;100.00
29549;BME280;16487;53.094;8.800;2023-10-08T09:05:07;100782.75;;;16.31;100.00
29549;BME280;16487;53.094;8.800;2023-10-08T09:07:36;100801.75;;;16.36;100.00
29549;BME280;16487;53.094;8.800;2023-10-08T09:10:04;100813.31;;;16.38;100.00
29549;BME280;16487;53.094;8.800;2023-10-08T09:12:32;100817.72;;;16.30;100.00
29549;BME280;16487;53.094;8.800;2023-10-08T09:15:00;100838.81;;;16.34;100.00
29549;BME280;16487;53.094;8.800;2023-10-08T09:17:28;100861.78;;;16.33;100.00
29549;BME280;16487;53.094;8.800;2023-10-08T09:19:55;100857.25;;;16.12;100.00
29549;BME280;16487;53.094;8.800;2023-10-08T09:22:22;100858.97;;;16.09;100.00
29549;BME280;16487;53.094;8.800;2023-10-08T09:24:53;100855.69;;;16.11;100.00
29549;BME280;16487;53.094;8.800;2023-10-08T09:27:20;100849.94;;;16.29;100.00
29549;BME280;16487;53.094;8.800;2023-10-08T09:29:48;100858.31;;;16.38;100.00
29549;BME280;16487;53.094;8.800;2023-10-08T09:32:16;100876.66;;;16.57;100.00
29549;BME280;16487;53.094;8.800;2023-10-08T09:34:43;100894.75;;;16.32;100.00
29549;BME280;16487;53.094;8.800;2023-10-08T09:37:11;100927.03;;;16.46;100.00
29549;BME280;16487;53.094;8.800;2023-10-08T09:39:39;100949.22;;;16.44;100.00
29549;BME280;16487;53.094;8.800;2023-10-08T09:42:09;100972.31;;;16.57;100.00
29549;BME280;16487;53.094;8.800;2023-10-08T09:44:38;100999.84;;;16.53;100.00
29549;BME280;16487;53.094;8.800;2023-10-08T09:47:06;101002.94;;;16.64;100.00
29549;BME280;16487;53.094;8.800;2023-10-08T09:49:38;101015.38;;;16.72;100.00
29549;BME280;16487;53.094;8.800;2023-10-08T09:52:06;101023.63;;;16.99;100.00
29549;BME280;16487;53.094;8.800;2023-10-08T09:54:43;101040.53;;;17.37;100.00
29549;BME280;16487;53.094;8.800;2023-10-08T09:57:12;101125.97;;;17.43;100.00
29549;BME280;16487;53.094;8.800;2023-10-08T09:59:40;101260.75;;;17.54;100.00
29549;BME280;16487;53.094;8.800;2023-10-08T10:02:07;101331.22;;;18.01;100.00
29549;BME280;16487;53.094;8.800;2023-10-08T10:04:34;101486.41;;;18.34;100.00
29549;BME280;16487;53.094;8.800;2023-10-08T10:07:09;101541.09;;;18.36;100.00
29549;BME280;16487;53.094;8.800;2023-10-08T10:09:36;101560.28;;;18.65;100.00
29549;BME280;16487;53.094;8.800;2023-10-08T10:12:05;101667.47;;;18.50;100.00
29549;BME280;16487;53.094;8.800;2023-10-08T10:14:42;101733.09;;;18.18;100.00
29549;BME280;16487;53.094;8.800;2023-10-08T10:17:12;101804.88;;;18.35;100.00
29549;BME280;16487;53.094;8.800;2023-10-08T10:19:54;101704.41;;;17.83;100.00
29549;BME280;16487;53.094;8.800;2023-10-08T10:22:29;101755.88;;;18.83;100.00
29549;BME280;16487;53.094;8.800;2023-10-08T10:24:57;101868.41;;;18.85;100.00
29549;BME280;16487;53.094;8.800;2023-10-08T10:27:24;101930.06;;;18.86;100.00
29549;BME280;16487;53.094;8.800;2023-10-08T10:30:01;102051.06;;;18.70;100.00
29549;BME280;16487;53.094;8.800;2023-10-08T10:32:28;102183.75;;;18.91;100.00
29549;BME280;16487;53.094;8.800;2023-10-08T10:34:55;102394.91;;;18.35;100.00
29549;BME280;16487;53.094;8.800;2023-10-08T10:37:23;102369.69;;;18.06;100.00
29549;BME280;16487;53.094;8.800;2023-10-08T10:39:50;102465.06;;;18.24;100.00
29549;BME280;16487;53.094;8.800;2023-10-08T10:42:18;102566.88;;;17.79;100.00
29549;BME280;16487;53.094;8.800;2023-10-08T10:44:45;102656.50;;;18.54;100.00
29549;BME280;16487;53.094;8.800;2023-10-08T10:47:14;102740.13;;;18.77;100.00
29549;BME280;16487;53.094;8.800;2023-10-08T10:49:41;102790.53;;;18.91;100.00
29549;BME280;16487;53.094;8.800;2023-10-08T10:52:08;102804.19;;;19.05;100.00
29549;BME280;16487;53.094;8.800;2023-10-08T10:54:36;102796.03;;;17.99;100.00
29549;BME280;16487;53.094;8.800;2023-10-08T10:57:05;102762.41;;;18.34;100.00
29549;BME280;16487;53.094;8.800;2023-10-08T10:59:33;102691.75;;;18.62;100.00
29549;BME280;16487;53.094;8.800;2023-10-08T11:02:00;102737.38;;;19.70;100.00
29549;BME280;16487;53.094;8.800;2023-10-08T11:04:29;102783.47;;;20.79;100.00
29549;BME280;16487;53.094;8.800;2023-10-08T11:06:57;102824.53;;;22.20;100.00
29549;BME280;16487;53.094;8.800;2023-10-08T11:09:25;102883.88;;;22.18;100.00
29549;BME280;16487;53.094;8.800;2023-10-08T11:11:52;102896.34;;;22.21;100.00
29549;BME280;16487;53.094;8.800;2023-10-08T11:14:19;102911.31;;;22.03;100.00
29549;BME280;16487;53.094;8.800;2023-10-08T11:16:47;102904.88;;;21.63;100.00
29549;BME280;16487;53.094;8.800;2023-10-08T11:19:14;102908.72;;;22.63;100.00
29549;BME280;16487;53.094;8.800;2023-10-08T11:21:52;102912.88;;;23.04;100.00
29549;BME280;16487;53.094;8.800;2023-10-08T11:24:29;102906.41;;;20.16;100.00
29549;BME280;16487;53.094;8.800;2023-10-08T11:26:57;102874.03;;;20.05;100.00
29549;BME280;16487;53.094;8.800;2023-10-08T11:29:24;102881.69;;;20.51;100.00
29549;BME280;16487;53.094;8.800;2023-10-08T11:31:52;102869.28;;;20.02;100.00
29549;BME280;16487;53.094;8.800;2023-10-08T11:34:19;102853.06;;;19.05;100.00
29549;BME280;16487;53.094;8.800;2023-10-08T11:36:53;102843.91;;;19.14;100.00
29549;BME280;16487;53.094;8.800;2023-10-08T11:39:21;102841.03;;;20.45;100.00
29549;BME280;16487;53.094;8.800;2023-10-08T11:41:56;102863.19;;;21.51;100.00
29549;BME280;16487;53.094;8.800;2023-10-08T11:44:23;102869.63;;;21.03;100.00
29549;BME280;16487;53.094;8.800;2023-10-08T11:46:50;102861.63;;;21.50;100.00
29549;BME280;16487;53.094;8.800;2023-10-08T11:49:18;102866.13;;;20.77;100.00
29549;BME280;16487;53.094;8.800;2023-10-08T11:51:45;102859.09;;;20.04;100.00
29549;BME280;16487;53.094;8.800;2023-10-08T11:54:14;102860.00;;;18.76;100.00
29549;BME280;16487;53.094;8.800;2023-10-08T11:56:42;102852.25;;;18.92;100.00
29549;BME280;16487;53.094;8.800;2023-10-08T11:59:09;102823.13;;;19.33;100.00
29549;BME280;16487;53.094;8.800;2023-10-08T12:01:37;102830.56;;;19.39;100.00
29549;BME280;16487;53.094;8.800;2023-10-08T12:04:05;102817.72;;;18.60;100.00
29549;BME280;16487;53.094;8.800;2023-10-08T12:06:32;102798.69;;;18.48;100.00
29549;BME280;16487;53.094;8.800;2023-10-08T12:09:00;102739.44;;;18.19;100.00
29549;BME280;16487;53.094;8.800;2023-10-08T12:11:28;102727.63;;;18.37;100.00
29549;BME280;16487;53.094;8.800;2023-10-08T12:13:55;102732.53;;;18.74;100.00
29549;BME280;16487;53.094;8.800;2023-10-08T12:16:22;102724.50;;;18.85;100.00
29549;BME280;16487;53.094;8.800;2023-10-08T12:18:50;102716.72;;;18.64;100.00
29549;BME280;16487;53.094;8.800;2023-10-08T12:21:17;102698.50;;;17.98;100.00
29549;BME280;16487;53.094;8.800;2023-10-08T12:23:44;102707.25;;;18.29;100.00
29549;BME280;16487;53.094;8.800;2023-10-08T12:26:12;102719.31;;;18.46;100.00
29549;BME280;16487;53.094;8.800;2023-10-08T12:28:41;102748.56;;;18.10;100.00
29549;BME280;16487;53.094;8.800;2023-10-08T12:31:08;102761.47;;;18.90;100.00
29549;BME280;16487;53.094;8.800;2023-10-08T12:33:35;102777.06;;;19.45;100.00
29549;BME280;16487;53.094;8.800;2023-10-08T12:36:03;102779.09;;;19.19;100.00
29549;BME280;16487;53.094;8.800;2023-10-08T12:38:30;102808.91;;;20.05;100.00
29549;BME280;16487;53.094;8.800;2023-10-08T12:40:57;102829.00;;;20.84;100.00
29549;BME280;16487;53.094;8.800;2023-10-08T12:43:25;102811.25;;;20.40;100.00